Wetterdaten: Woche 20.01.14 - 26.01.14 (KW4)
Datum Zeit Temp. Aussen +5cm Feuchte Auss Luftdruck Regen Sonnenschein Regendauer UV Solar Windben
20.01.2014 00:00 4,5 C 3,9 C 95 % 1001,6 hPa 0,0 l/m 0,00 h 0,00 h 0,0 UV-I 0 W/m 0,0 km/h (0 Bft)
20.01.2014 01:00 4,7 C 3,9 C 95 % 1001,5 hPa 0,0 l/m 0,00 h 0,00 h 0,0 UV-I 0 W/m 0,0 km/h (0 Bft)
20.01.2014 02:00 4,8 C 3,9 C 94 % 1001,3 hPa 0,0 l/m 0,00 h 0,00 h 0,0 UV-I 0 W/m 0,0 km/h (0 Bft)
20.01.2014 03:00 4,8 C 3,9 C 94 % 1001,5 hPa 0,0 l/m 0,00 h 0,00 h 0,0 UV-I 0 W/m 0,0 km/h (0 Bft)
20.01.2014 04:00 4,9 C 3,9 C 93 % 1001,6 hPa 0,0 l/m 0,00 h 0,00 h 0,0 UV-I 0 W/m 0,0 km/h (0 Bft)
20.01.2014 05:00 5,0 C 3,9 C 93 % 1001,7 hPa 0,0 l/m 0,00 h 0,00 h 0,0 UV-I 0 W/m 0,0 km/h (0 Bft)
20.01.2014 06:00 4,9 C 3,9 C 93 % 1001,8 hPa 0,0 l/m 0,00 h 0,00 h 0,0 UV-I 0 W/m 1,0 km/h (0 Bft)
20.01.2014 07:00 4,9 C 3,9 C 93 % 1002,4 hPa 0,0 l/m 0,00 h 0,00 h 0,0 UV-I 0 W/m 0,4 km/h (0 Bft)
20.01.2014 08:00 4,9 C 3,9 C 93 % 1002,8 hPa 0,0 l/m 0,00 h 0,00 h 0,0 UV-I 0 W/m 0,1 km/h (0 Bft)
20.01.2014 09:00 4,7 C 3,7 C 93 % 1003,4 hPa 0,0 l/m 0,00 h 0,00 h 0,0 UV-I 9 W/m 3,6 km/h (1 Bft)
20.01.2014 10:00 4,4 C 3,3 C 94 % 1004,4 hPa 0,0 l/m 0,00 h 0,00 h 0,0 UV-I 23 W/m 0,8 km/h (0 Bft)
20.01.2014 11:00 4,1 C 3,3 C 95 % 1004,7 hPa 0,0 l/m 0,00 h 0,00 h 0,0 UV-I 33 W/m 5,1 km/h (1 Bft)
20.01.2014 12:00 4,0 C 3,3 C 93 % 1004,7 hPa 0,0 l/m 0,00 h 0,00 h 0,0 UV-I 36 W/m 6,9 km/h (2 Bft)
20.01.2014 13:00 3,9 C 3,2 C 93 % 1004,7 hPa 0,0 l/m 0,00 h 0,00 h 0,0 UV-I 49 W/m 9,3 km/h (2 Bft)
20.01.2014 14:00 3,6 C 2,8 C 93 % 1004,9 hPa 0,0 l/m 0,00 h 0,00 h 0,0 UV-I 43 W/m 4,5 km/h (1 Bft)
20.01.2014 15:00 3,4 C 2,8 C 94 % 1005,3 hPa 0,0 l/m 0,00 h 0,00 h 0,0 UV-I 21 W/m 4,6 km/h (1 Bft)
20.01.2014 16:00 3,3 C 2,4 C 94 % 1005,6 hPa 0,0 l/m 0,00 h 0,00 h 0,0 UV-I 9 W/m 2,5 km/h (1 Bft)
20.01.2014 17:00 3,2 C 2,2 C 93 % 1006,1 hPa 0,0 l/m 0,00 h 0,00 h 0,0 UV-I 0 W/m 2,3 km/h (1 Bft)
20.01.2014 18:00 3,1 C 2,2 C 93 % 1006,7 hPa 0,0 l/m 0,00 h 0,00 h 0,0 UV-I 0 W/m 3,4 km/h (1 Bft)
20.01.2014 19:00 2,8 C 1,9 C 94 % 1007,1 hPa 0,0 l/m 0,00 h 0,00 h 0,0 UV-I 0 W/m 5,8 km/h (2 Bft)
20.01.2014 20:00 2,5 C 1,2 C 94 % 1007,7 hPa 0,0 l/m 0,00 h 0,00 h 0,0 UV-I 0 W/m 4,0 km/h (1 Bft)
20.01.2014 21:00 2,2 C 1,1 C 95 % 1008,2 hPa 0,0 l/m 0,00 h 0,00 h 0,0 UV-I 0 W/m 4,1 km/h (1 Bft)
20.01.2014 22:00 2,0 C 1,1 C 96 % 1008,6 hPa 0,0 l/m 0,00 h 0,00 h 0,0 UV-I 0 W/m 5,0 km/h (1 Bft)
20.01.2014 23:00 1,7 C 0,6 C 96 % 1008,9 hPa 0,0 l/m 0,00 h 0,00 h 0,0 UV-I 0 W/m 3,8 km/h (1 Bft)
21.01.2014 00:00 1,6 C 0,6 C 96 % 1009,2 hPa 0,0 l/m 0,00 h 0,00 h 0,0 UV-I 0 W/m 2,7 km/h (1 Bft)
21.01.2014 01:00 1,5 C 0,6 C 97 % 1009,2 hPa 0,0 l/m 0,00 h 0,00 h 0,0 UV-I 0 W/m 1,1 km/h (1 Bft)
21.01.2014 02:00 1,5 C 0,6 C 97 % 1009,8 hPa 0,0 l/m 0,00 h 0,00 h 0,0 UV-I 0 W/m 1,3 km/h (1 Bft)
21.01.2014 03:00 1,4 C 0,6 C 97 % 1010,0 hPa 0,0 l/m 0,00 h 0,00 h 0,0 UV-I 0 W/m 0,6 km/h (0 Bft)
21.01.2014 04:00 1,4 C 0,6 C 97 % 1010,1 hPa 0,0 l/m 0,00 h 0,00 h 0,0 UV-I 0 W/m 0,5 km/h (0 Bft)
21.01.2014 05:00 1,4 C 0,6 C 97 % 1010,3 hPa 0,0 l/m 0,00 h 0,00 h 0,0 UV-I 0 W/m 0,1 km/h (0 Bft)
21.01.2014 06:00 1,4 C 0,6 C 97 % 1010,4 hPa 0,0 l/m 0,00 h 0,03 h 0,0 UV-I 0 W/m 0,0 km/h (0 Bft)
21.01.2014 07:00 1,5 C 0,8 C 97 % 1010,8 hPa 0,2 l/m 0,00 h 0,23 h 0,0 UV-I 0 W/m 0,0 km/h (0 Bft)
21.01.2014 08:00 1,7 C 1,1 C 97 % 1011,3 hPa 0,0 l/m 0,00 h 0,00 h 0,0 UV-I 0 W/m 0,0 km/h (0 Bft)
21.01.2014 09:00 1,9 C 1,1 C 97 % 1011,9 hPa 0,0 l/m 0,00 h 0,00 h 0,0 UV-I 9 W/m 0,0 km/h (0 Bft)
21.01.2014 10:00 2,1 C 1,8 C 98 % 1012,0 hPa 0,0 l/m 0,00 h 0,00 h 0,0 UV-I 28 W/m 0,0 km/h (0 Bft)
21.01.2014 11:00 2,8 C 2,6 C 98 % 1011,9 hPa 0,0 l/m 0,00 h 0,00 h 0,0 UV-I 67 W/m 0,5 km/h (0 Bft)
21.01.2014 12:00 3,3 C 2,8 C 95 % 1011,7 hPa 0,0 l/m 0,00 h 0,00 h 0,0 UV-I 51 W/m 0,3 km/h (0 Bft)
21.01.2014 13:00 3,6 C 3,0 C 94 % 1011,6 hPa 0,0 l/m 0,00 h 0,00 h 0,0 UV-I 41 W/m 0,2 km/h (0 Bft)
21.01.2014 14:00 3,8 C 3,3 C 94 % 1011,6 hPa 0,0 l/m 0,00 h 0,03 h 0,0 UV-I 34 W/m 0,3 km/h (0 Bft)
21.01.2014 15:00 4,0 C 3,3 C 94 % 1011,7 hPa 0,0 l/m 0,00 h 0,17 h 0,0 UV-I 18 W/m 0,0 km/h (0 Bft)
21.01.2014 16:00 4,1 C 2,8 C 93 % 1012,0 hPa 0,2 l/m 0,00 h 0,77 h 0,0 UV-I 6 W/m 0,0 km/h (0 Bft)
21.01.2014 17:00 4,0 C 2,8 C 94 % 1012,2 hPa 0,0 l/m 0,00 h 0,00 h 0,0 UV-I 0 W/m 0,0 km/h (0 Bft)
21.01.2014 18:00 4,0 C 2,7 C 95 % 1012,0 hPa 0,0 l/m 0,00 h 0,00 h 0,0 UV-I 0 W/m 0,0 km/h (0 Bft)
21.01.2014 19:00 3,9 C 2,8 C 95 % 1012,1 hPa 0,0 l/m 0,00 h 0,00 h 0,0 UV-I 0 W/m 0,1 km/h (0 Bft)
21.01.2014 20:00 3,9 C 2,8 C 96 % 1012,1 hPa 0,0 l/m 0,00 h 0,00 h 0,0 UV-I 0 W/m 0,9 km/h (0 Bft)
21.01.2014 21:00 4,0 C 3,0 C 96 % 1012,2 hPa 0,0 l/m 0,00 h 0,00 h 0,0 UV-I 0 W/m 1,0 km/h (0 Bft)
21.01.2014 22:00 4,1 C 2,8 C 96 % 1012,4 hPa 0,0 l/m 0,00 h 0,00 h 0,0 UV-I 0 W/m 5,5 km/h (1 Bft)
21.01.2014 23:00 3,7 C 2,4 C 95 % 1012,5 hPa 0,0 l/m 0,00 h 0,00 h 0,0 UV-I 0 W/m 4,7 km/h (1 Bft)
22.01.2014 00:00 3,5 C 2,2 C 95 % 1012,7 hPa 0,0 l/m 0,00 h 0,00 h 0,0 UV-I 0 W/m 0,9 km/h (0 Bft)
22.01.2014 01:00 3,4 C 2,2 C 95 % 1012,6 hPa 0,0 l/m 0,00 h 0,00 h 0,0 UV-I 0 W/m 1,8 km/h (1 Bft)
22.01.2014 02:00 3,3 C 2,2 C 94 % 1012,5 hPa 0,0 l/m 0,00 h 0,00 h 0,0 UV-I 0 W/m 0,2 km/h (0 Bft)
22.01.2014 03:00 3,1 C 2,1 C 94 % 1012,2 hPa 0,0 l/m 0,00 h 0,00 h 0,0 UV-I 0 W/m 0,9 km/h (0 Bft)
22.01.2014 04:00 2,9 C 1,6 C 94 % 1012,0 hPa 0,0 l/m 0,00 h 0,00 h 0,0 UV-I 0 W/m 0,0 km/h (0 Bft)
22.01.2014 05:00 2,7 C 1,7 C 94 % 1012,0 hPa 0,0 l/m 0,00 h 0,00 h 0,0 UV-I 0 W/m 0,0 km/h (0 Bft)
22.01.2014 06:00 2,7 C 1,7 C 94 % 1011,8 hPa 0,0 l/m 0,00 h 0,00 h 0,0 UV-I 0 W/m 0,0 km/h (0 Bft)
22.01.2014 07:00 2,9 C 2,2 C 94 % 1011,6 hPa 0,0 l/m 0,00 h 0,00 h 0,0 UV-I 0 W/m 0,0 km/h (0 Bft)
22.01.2014 08:00 3,0 C 2,2 C 95 % 1011,7 hPa 0,0 l/m 0,00 h 0,00 h 0,0 UV-I 9 W/m 2,1 km/h (1 Bft)
22.01.2014 09:00 3,1 C 2,3 C 94 % 1012,0 hPa 0,0 l/m 0,00 h 0,00 h 0,0 UV-I 29 W/m 9,6 km/h (2 Bft)
22.01.2014 10:00 3,5 C 3,2 C 93 % 1012,1 hPa 0,0 l/m 0,00 h 0,00 h 0,0 UV-I 73 W/m 14,1 km/h (3 Bft)
22.01.2014 11:00 4,3 C 4,2 C 90 % 1012,1 hPa 0,0 l/m 0,17 h 0,00 h 0,0 UV-I 140 W/m 12,6 km/h (3 Bft)
22.01.2014 12:00 5,8 C 4,5 C 82 % 1011,6 hPa 0,0 l/m 0,97 h 0,00 h 0,0 UV-I 290 W/m 12,4 km/h (3 Bft)
22.01.2014 13:00 6,3 C 4,8 C 78 % 1011,5 hPa 0,0 l/m 1,00 h 0,00 h 0,0 UV-I 276 W/m 12,5 km/h (3 Bft)
22.01.2014 14:00 6,3 C 5,0 C 81 % 1011,1 hPa 0,0 l/m 0,87 h 0,00 h 0,0 UV-I 204 W/m 11,6 km/h (2 Bft)
22.01.2014 15:00 5,5 C 4,0 C 84 % 1011,5 hPa 0,0 l/m 0,33 h 0,00 h 0,0 UV-I 90 W/m 6,8 km/h (2 Bft)
22.01.2014 16:00 4,6 C 2,3 C 86 % 1011,8 hPa 0,0 l/m 0,00 h 0,00 h 0,0 UV-I 16 W/m 0,3 km/h (0 Bft)
22.01.2014 17:00 3,5 C 0,6 C 89 % 1012,1 hPa 0,0 l/m 0,00 h 0,00 h 0,0 UV-I 5 W/m 0,0 km/h (0 Bft)
22.01.2014 18:00 2,5 C -0,1 C 91 % 1012,5 hPa 0,0 l/m 0,00 h 0,00 h 0,0 UV-I 0 W/m 0,0 km/h (0 Bft)
22.01.2014 19:00 2,1 C 0,0 C 93 % 1012,8 hPa 0,0 l/m 0,00 h 0,00 h 0,0 UV-I 0 W/m 3,4 km/h (1 Bft)
22.01.2014 20:00 1,5 C -0,2 C 92 % 1013,1 hPa 0,0 l/m 0,00 h 0,00 h 0,0 UV-I 0 W/m 2,1 km/h (1 Bft)
22.01.2014 21:00 0,7 C -0,9 C 93 % 1013,5 hPa 0,0 l/m 0,00 h 0,00 h 0,0 UV-I 0 W/m 1,3 km/h (1 Bft)
22.01.2014 22:00 0,1 C -1,7 C 94 % 1013,8 hPa 0,0 l/m 0,00 h 0,00 h 0,0 UV-I 0 W/m 0,8 km/h (0 Bft)
22.01.2014 23:00 -0,4 C -2,2 C 94 % 1013,9 hPa 0,0 l/m 0,00 h 0,00 h 0,0 UV-I 0 W/m 0,4 km/h (0 Bft)
23.01.2014 00:00 -0,8 C -2,9 C 95 % 1014,1 hPa 0,0 l/m 0,00 h 0,00 h 0,0 UV-I 0 W/m 0,0 km/h (0 Bft)
23.01.2014 01:00 -1,5 C -3,3 C 96 % 1014,1 hPa 0,0 l/m 0,00 h 0,00 h 0,0 UV-I 0 W/m 0,0 km/h (0 Bft)
23.01.2014 02:00 -1,5 C -3,2 C 96 % 1014,1 hPa 0,0 l/m 0,00 h 0,00 h 0,0 UV-I 0 W/m 0,1 km/h (0 Bft)
23.01.2014 03:00 -1,5 C -3,1 C 97 % 1014,3 hPa 0,0 l/m 0,00 h 0,00 h 0,0 UV-I 0 W/m 0,0 km/h (0 Bft)
23.01.2014 04:00 -1,4 C -3,0 C 97 % 1014,2 hPa 0,0 l/m 0,00 h 0,00 h 0,0 UV-I 0 W/m 0,3 km/h (0 Bft)
23.01.2014 05:00 -1,3 C -2,8 C 97 % 1014,1 hPa 0,0 l/m 0,00 h 0,00 h 0,0 UV-I 0 W/m 1,4 km/h (1 Bft)
23.01.2014 06:00 -1,2 C -2,8 C 97 % 1014,0 hPa 0,0 l/m 0,00 h 0,00 h 0,0 UV-I 0 W/m 0,3 km/h (0 Bft)
23.01.2014 07:00 -1,2 C -2,2 C 97 % 1014,0 hPa 0,0 l/m 0,00 h 0,00 h 0,0 UV-I 0 W/m 1,6 km/h (1 Bft)
23.01.2014 08:00 -0,9 C -1,8 C 97 % 1014,1 hPa 0,0 l/m 0,00 h 0,00 h 0,0 UV-I 11 W/m 1,4 km/h (1 Bft)
23.01.2014 09:00 -0,5 C -1,2 C 98 % 1014,2 hPa 0,0 l/m 0,00 h 0,00 h 0,0 UV-I 49 W/m 1,1 km/h (1 Bft)
23.01.2014 10:00 0,9 C 0,6 C 98 % 1014,2 hPa 0,2 l/m 0,70 h 0,03 h 0,0 UV-I 154 W/m 1,6 km/h (1 Bft)
23.01.2014 11:00 2,4 C 2,4 C 95 % 1013,8 hPa 0,0 l/m 0,27 h 0,00 h 0,0 UV-I 131 W/m 10,2 km/h (2 Bft)
23.01.2014 12:00 2,7 C 2,4 C 92 % 1013,0 hPa 0,0 l/m 0,00 h 0,00 h 0,0 UV-I 62 W/m 8,7 km/h (2 Bft)
23.01.2014 13:00 3,1 C 2,6 C 91 % 1012,3 hPa 0,0 l/m 0,00 h 0,30 h 0,0 UV-I 52 W/m 9,4 km/h (2 Bft)
23.01.2014 14:00 3,3 C 2,2 C 94 % 1011,6 hPa 1,0 l/m 0,00 h 1,00 h 0,0 UV-I 29 W/m 10,3 km/h (2 Bft)
23.01.2014 15:00 3,4 C 2,5 C 96 % 1011,1 hPa 0,2 l/m 0,00 h 0,67 h 0,0 UV-I 28 W/m 10,7 km/h (2 Bft)
23.01.2014 16:00 3,5 C 2,2 C 96 % 1010,8 hPa 0,0 l/m 0,00 h 0,00 h 0,0 UV-I 11 W/m 9,3 km/h (2 Bft)
23.01.2014 17:00 3,5 C 2,2 C 97 % 1010,6 hPa 0,0 l/m 0,00 h 0,10 h 0,0 UV-I 0 W/m 7,8 km/h (2 Bft)
23.01.2014 18:00 3,5 C 2,1 C 97 % 1010,1 hPa 0,0 l/m 0,00 h 0,00 h 0,0 UV-I 0 W/m 8,2 km/h (2 Bft)
23.01.2014 19:00 3,0 C 1,4 C 96 % 1009,4 hPa 0,0 l/m 0,00 h 0,00 h 0,0 UV-I 0 W/m 6,0 km/h (2 Bft)
23.01.2014 20:00 2,9 C 1,7 C 96 % 1008,9 hPa 0,6 l/m 0,00 h 0,73 h 0,0 UV-I 0 W/m 3,2 km/h (1 Bft)
23.01.2014 21:00 3,0 C 1,9 C 97 % 1008,4 hPa 0,4 l/m 0,00 h 1,00 h 0,0 UV-I 0 W/m 1,6 km/h (1 Bft)
23.01.2014 22:00 3,2 C 2,2 C 97 % 1008,4 hPa 0,4 l/m 0,00 h 0,97 h 0,0 UV-I 0 W/m 2,4 km/h (1 Bft)
23.01.2014 23:00 3,1 C 1,9 C 97 % 1009,1 hPa 0,2 l/m 0,00 h 0,63 h 0,0 UV-I 0 W/m 11,4 km/h (2 Bft)
24.01.2014 00:00 2,6 C 1,5 C 97 % 1009,8 hPa 0,0 l/m 0,00 h 0,03 h 0,0 UV-I 0 W/m 4,3 km/h (1 Bft)
24.01.2014 01:00 2,6 C 1,4 C 97 % 1010,0 hPa 0,0 l/m 0,00 h 0,00 h 0,0 UV-I 0 W/m 1,3 km/h (1 Bft)
24.01.2014 02:00 2,3 C 0,8 C 97 % 1010,4 hPa 0,0 l/m 0,00 h 0,07 h 0,0 UV-I 0 W/m 2,6 km/h (1 Bft)
24.01.2014 03:00 2,6 C 1,3 C 97 % 1011,1 hPa 0,0 l/m 0,00 h 0,07 h 0,0 UV-I 0 W/m 4,0 km/h (1 Bft)
24.01.2014 04:00 2,3 C 0,9 C 97 % 1011,5 hPa 0,0 l/m 0,00 h 0,00 h 0,0 UV-I 0 W/m 4,1 km/h (1 Bft)
24.01.2014 05:00 2,1 C 0,4 C 97 % 1011,9 hPa 0,0 l/m 0,00 h 0,00 h 0,0 UV-I 0 W/m 4,0 km/h (1 Bft)
24.01.2014 06:00 1,5 C 0,1 C 97 % 1012,3 hPa 0,0 l/m 0,00 h 0,00 h 0,0 UV-I 0 W/m 2,2 km/h (1 Bft)
24.01.2014 07:00 1,8 C 1,0 C 97 % 1013,0 hPa 0,0 l/m 0,00 h 0,03 h 0,0 UV-I 0 W/m 6,5 km/h (2 Bft)
24.01.2014 08:00 2,2 C 1,1 C 97 % 1013,9 hPa 0,0 l/m 0,00 h 0,00 h 0,0 UV-I 7 W/m 5,4 km/h (1 Bft)
24.01.2014 09:00 2,4 C 1,7 C 97 % 1014,5 hPa 0,0 l/m 0,00 h 0,00 h 0,0 UV-I 21 W/m 3,3 km/h (1 Bft)
24.01.2014 10:00 3,0 C 2,3 C 97 % 1014,9 hPa 0,2 l/m 0,20 h 0,57 h 0,0 UV-I 97 W/m 5,0 km/h (1 Bft)
24.01.2014 11:00 3,5 C 2,8 C 96 % 1015,4 hPa 0,0 l/m 0,13 h 0,17 h 0,0 UV-I 130 W/m 2,9 km/h (1 Bft)
24.01.2014 12:00 4,3 C 3,8 C 95 % 1015,5 hPa 0,0 l/m 0,03 h 0,30 h 0,0 UV-I 118 W/m 3,5 km/h (1 Bft)
24.01.2014 13:00 4,4 C 3,8 C 95 % 1015,5 hPa 0,2 l/m 0,00 h 0,27 h 0,0 UV-I 101 W/m 2,1 km/h (1 Bft)
24.01.2014 14:00 4,7 C 3,9 C 94 % 1015,6 hPa 0,0 l/m 0,00 h 0,00 h 0,0 UV-I 71 W/m 0,5 km/h (0 Bft)
24.01.2014 15:00 4,8 C 3,8 C 93 % 1016,2 hPa 0,0 l/m 0,00 h 0,67 h 0,0 UV-I 43 W/m 0,0 km/h (0 Bft)
24.01.2014 16:00 4,7 C 3,0 C 94 % 1016,4 hPa 0,0 l/m 0,00 h 0,10 h 0,0 UV-I 14 W/m 0,0 km/h (0 Bft)
24.01.2014 17:00 4,3 C 2,2 C 93 % 1016,7 hPa 0,0 l/m 0,00 h 0,00 h 0,0 UV-I 0 W/m 0,0 km/h (0 Bft)
24.01.2014 18:00 4,0 C 2,2 C 94 % 1017,3 hPa 0,0 l/m 0,00 h 0,00 h 0,0 UV-I 0 W/m 0,0 km/h (0 Bft)
24.01.2014 19:00 3,8 C 2,2 C 94 % 1017,5 hPa 0,0 l/m 0,00 h 0,00 h 0,0 UV-I 0 W/m 0,0 km/h (0 Bft)
24.01.2014 20:00 3,8 C 2,2 C 95 % 1017,9 hPa 0,0 l/m 0,00 h 0,00 h 0,0 UV-I 0 W/m 0,0 km/h (0 Bft)
24.01.2014 21:00 3,7 C 2,2 C 95 % 1017,8 hPa 0,0 l/m 0,00 h 0,00 h 0,0 UV-I 0 W/m 0,0 km/h (0 Bft)
24.01.2014 22:00 3,5 C 2,2 C 96 % 1018,0 hPa 0,0 l/m 0,00 h 0,00 h 0,0 UV-I 0 W/m 0,0 km/h (0 Bft)
24.01.2014 23:00 3,4 C 2,2 C 96 % 1018,3 hPa 0,0 l/m 0,00 h 0,00 h 0,0 UV-I 0 W/m 0,0 km/h (0 Bft)
25.01.2014 00:00 3,3 C 2,2 C 96 % 1018,4 hPa 0,0 l/m 0,00 h 0,00 h 0,0 UV-I 0 W/m 0,0 km/h (0 Bft)
25.01.2014 01:00 3,3 C 2,1 C 96 % 1018,2 hPa 0,0 l/m 0,00 h 0,00 h 0,0 UV-I 0 W/m 0,3 km/h (0 Bft)
25.01.2014 02:00 3,2 C 1,9 C 97 % 1018,4 hPa 0,2 l/m 0,00 h 0,00 h 0,0 UV-I 0 W/m 0,0 km/h (0 Bft)
25.01.2014 03:00 3,0 C 1,2 C 97 % 1018,7 hPa 0,0 l/m 0,00 h 0,00 h 0,0 UV-I 0 W/m 0,0 km/h (0 Bft)
25.01.2014 04:00 2,1 C -0,3 C 97 % 1018,6 hPa 0,0 l/m 0,00 h 0,00 h 0,0 UV-I 0 W/m 0,0 km/h (0 Bft)
25.01.2014 05:00 1,1 C -1,1 C 96 % 1018,6 hPa 0,0 l/m 0,00 h 0,00 h 0,0 UV-I 0 W/m 0,0 km/h (0 Bft)
25.01.2014 06:00 0,3 C -1,1 C 96 % 1018,5 hPa 0,0 l/m 0,00 h 0,00 h 0,0 UV-I 0 W/m 0,0 km/h (0 Bft)
25.01.2014 07:00 0,2 C -0,8 C 96 % 1018,2 hPa 0,0 l/m 0,00 h 0,00 h 0,0 UV-I 0 W/m 0,0 km/h (0 Bft)
25.01.2014 08:00 0,9 C 0,0 C 97 % 1018,2 hPa 0,0 l/m 0,00 h 0,00 h 0,0 UV-I 8 W/m 0,5 km/h (0 Bft)
25.01.2014 09:00 1,3 C 0,6 C 97 % 1018,5 hPa 0,0 l/m 0,00 h 0,00 h 0,0 UV-I 40 W/m 2,7 km/h (1 Bft)
25.01.2014 10:00 1,7 C 1,4 C 98 % 1018,5 hPa 0,0 l/m 0,00 h 0,00 h 0,0 UV-I 80 W/m 5,5 km/h (1 Bft)
25.01.2014 11:00 3,0 C 2,7 C 96 % 1018,5 hPa 0,0 l/m 0,00 h 0,00 h 0,0 UV-I 138 W/m 7,0 km/h (2 Bft)
25.01.2014 12:00 4,3 C 4,0 C 89 % 1018,0 hPa 0,0 l/m 0,50 h 0,00 h 0,0 UV-I 188 W/m 10,2 km/h (2 Bft)
25.01.2014 13:00 4,8 C 4,3 C 83 % 1017,0 hPa 0,0 l/m 0,03 h 0,00 h 0,0 UV-I 145 W/m 10,7 km/h (2 Bft)
25.01.2014 14:00 5,1 C 4,9 C 82 % 1016,4 hPa 0,0 l/m 0,03 h 0,00 h 0,0 UV-I 126 W/m 8,4 km/h (2 Bft)
25.01.2014 15:00 5,1 C 4,4 C 81 % 1015,2 hPa 0,0 l/m 0,17 h 0,00 h 0,0 UV-I 91 W/m 10,7 km/h (2 Bft)
25.01.2014 16:00 4,7 C 3,3 C 82 % 1014,1 hPa 0,0 l/m 0,00 h 0,00 h 0,0 UV-I 24 W/m 6,2 km/h (2 Bft)
25.01.2014 17:00 4,7 C 3,3 C 81 % 1013,7 hPa 0,0 l/m 0,00 h 0,00 h 0,0 UV-I 7 W/m 6,5 km/h (2 Bft)
25.01.2014 18:00 4,6 C 3,2 C 81 % 1012,1 hPa 0,0 l/m 0,00 h 0,00 h 0,0 UV-I 0 W/m 14,6 km/h (3 Bft)
25.01.2014 19:00 4,3 C 2,8 C 82 % 1010,0 hPa 0,0 l/m 0,00 h 0,00 h 0,0 UV-I 0 W/m 20,7 km/h (4 Bft)
25.01.2014 20:00 4,2 C 2,6 C 84 % 1008,1 hPa 0,0 l/m 0,00 h 0,20 h 0,0 UV-I 0 W/m 18,9 km/h (3 Bft)
25.01.2014 21:00 4,0 C 2,2 C 87 % 1006,9 hPa 1,0 l/m 0,00 h 0,70 h 0,0 UV-I 0 W/m 14,9 km/h (3 Bft)
25.01.2014 22:00 3,5 C 2,1 C 92 % 1005,1 hPa 1,2 l/m 0,00 h 1,00 h 0,0 UV-I 0 W/m 17,2 km/h (3 Bft)
25.01.2014 23:00 4,1 C 2,5 C 95 % 1005,2 hPa 0,8 l/m 0,00 h 1,00 h 0,0 UV-I 0 W/m 19,2 km/h (3 Bft)
26.01.2014 00:00 4,0 C 2,6 C 95 % 1004,9 hPa 0,2 l/m 0,00 h 0,83 h 0,0 UV-I 0 W/m 20,8 km/h (4 Bft)
26.01.2014 01:00 4,7 C 3,2 C 95 % 1005,4 hPa 0,4 l/m 0,00 h 1,00 h 0,0 UV-I 0 W/m 25,6 km/h (4 Bft)
26.01.2014 02:00 4,9 C 3,3 C 93 % 1006,4 hPa 0,0 l/m 0,00 h 0,27 h 0,0 UV-I 0 W/m 21,8 km/h (4 Bft)
26.01.2014 03:00 5,0 C 3,0 C 91 % 1007,8 hPa 0,4 l/m 0,00 h 0,57 h 0,0 UV-I 0 W/m 22,1 km/h (4 Bft)
26.01.2014 04:00 4,8 C 2,8 C 91 % 1009,0 hPa 0,0 l/m 0,00 h 0,43 h 0,0 UV-I 0 W/m 18,9 km/h (3 Bft)
26.01.2014 05:00 4,5 C 2,5 C 91 % 1009,6 hPa 0,0 l/m 0,00 h 0,00 h 0,0 UV-I 0 W/m 12,2 km/h (2 Bft)
26.01.2014 06:00 4,1 C 2,2 C 92 % 1010,2 hPa 0,0 l/m 0,00 h 0,00 h 0,0 UV-I 0 W/m 13,7 km/h (3 Bft)
26.01.2014 07:00 3,9 C 2,4 C 92 % 1010,7 hPa 0,0 l/m 0,00 h 0,00 h 0,0 UV-I 0 W/m 11,6 km/h (2 Bft)
26.01.2014 08:00 4,3 C 2,8 C 92 % 1010,8 hPa 0,0 l/m 0,00 h 0,00 h 0,0 UV-I 7 W/m 10,6 km/h (2 Bft)
26.01.2014 09:00 4,4 C 3,3 C 91 % 1010,6 hPa 0,0 l/m 0,00 h 0,00 h 0,0 UV-I 36 W/m 9,4 km/h (2 Bft)
26.01.2014 10:00 4,9 C 4,0 C 90 % 1010,1 hPa 0,0 l/m 0,00 h 0,00 h 0,0 UV-I 85 W/m 13,9 km/h (3 Bft)
26.01.2014 11:00 5,4 C 4,8 C 89 % 1009,7 hPa 0,0 l/m 0,03 h 0,00 h 0,0 UV-I 125 W/m 8,7 km/h (2 Bft)
26.01.2014 12:00 5,8 C 5,3 C 87 % 1008,7 hPa 0,0 l/m 0,63 h 0,00 h 0,0 UV-I 203 W/m 9,0 km/h (2 Bft)
26.01.2014 13:00 6,0 C 5,5 C 83 % 1007,6 hPa 0,0 l/m 0,07 h 0,00 h 0,0 UV-I 146 W/m 8,5 km/h (2 Bft)
26.01.2014 14:00 5,9 C 5,0 C 80 % 1005,6 hPa 0,0 l/m 0,00 h 0,00 h 0,0 UV-I 99 W/m 10,0 km/h (2 Bft)
26.01.2014 15:00 5,8 C 4,7 C 79 % 1004,1 hPa 0,0 l/m 0,00 h 0,00 h 0,0 UV-I 58 W/m 9,3 km/h (2 Bft)
26.01.2014 16:00 5,6 C 4,1 C 80 % 1002,3 hPa 0,0 l/m 0,00 h 0,00 h 0,0 UV-I 12 W/m 11,7 km/h (2 Bft)
26.01.2014 17:00 5,4 C 3,9 C 78 % 1000,0 hPa 0,0 l/m 0,00 h 0,03 h 0,0 UV-I 0 W/m 15,3 km/h (3 Bft)
26.01.2014 18:00 4,9 C 2,5 C 84 % 998,2 hPa 1,4 l/m 0,00 h 1,00 h 0,0 UV-I 0 W/m 19,9 km/h (4 Bft)
26.01.2014 19:00 3,7 C 2,2 C 92 % 995,7 hPa 2,8 l/m 0,00 h 1,00 h 0,0 UV-I 0 W/m 23,8 km/h (4 Bft)
26.01.2014 20:00 3,3 C 2,2 C 95 % 993,3 hPa 3,4 l/m 0,00 h 1,00 h 0,0 UV-I 0 W/m 31,1 km/h (5 Bft)
26.01.2014 21:00 3,5 C 2,2 C 96 % 991,4 hPa 1,2 l/m 0,00 h 1,00 h 0,0 UV-I 0 W/m 32,3 km/h (5 Bft)
26.01.2014 22:00 3,7 C 2,6 C 97 % 990,4 hPa 1,0 l/m 0,00 h 0,83 h 0,0 UV-I 0 W/m 25,5 km/h (4 Bft)
26.01.2014 23:00 3,9 C 2,8 C 97 % 989,8 hPa 0,2 l/m 0,00 h 0,27 h 0,0 UV-I 0 W/m 13,0 km/h (3 Bft)
Min-Datum _ 23.01.14 23.01.14 22.01.14 26.01.14 - - - - - 20.01.14
_ Min-Zeit 03:50 00:52 13:30 23:36 - - - - - 00:00
Minimum _ -1,9 C -3,3 C 77 % 989,6 hPa - - - - - 0,0 km/h (0 Bft)
Max-Datum _ 22.01.14 22.01.14 23.01.14 25.01.14 26.01.14 22.01.14 21.01.14 20.01.14 22.01.14 26.01.14
_ Max-Zeit 14:10 14:10 04:20 03:08 20:02 11:50 06:28 00:00 11:52 20:40
Maximum _ 6,7 C 5,6 C 100 % 1018,8 hPa 3,4 l/m 0,03 h 0,03 h 0,0 UV-I 320 W/m 48,9 km/h
S-SO (6 Bft)
Durchschnitt _ 3,2 C 2,0 C 93 % 1010,6 hPa #18,0 l/m #6:08 h #20:10 h 0,0 UV-I 69 W/m 5,4 km/h (1 Bft)
© 2014 W. Hausmann